Time;durP1;ratioP1;P1;durP2;ratioP2;P2;SDS_P1;SDS_P2;PMS_P1;PMS_P2;Temp;Humidity;BMP_temperature;BMP_pressure;BME280_temperature;BME280_humidity;BME280_pressure;Samples;Min_cycle;Max_cycle;Signal;HPM_P1;HPM_P2
2023/12/04 00:01:27;;;;;;;23.27;13.23;;;-1.00;99.90;;;;;;5048967;28;20879;-49
2023/12/04 00:03:55;;;;;;;22.33;13.23;;;-1.00;99.90;;;;;;5062893;28;20200;-48
2023/12/04 00:06:22;;;;;;;25.53;13.83;;;-1.00;99.90;;;;;;5054070;28;20224;-50
2023/12/04 00:08:49;;;;;;;24.93;13.50;;;-1.00;99.90;;;;;;5054563;28;20208;-48
2023/12/04 00:11:16;;;;;;;24.50;13.37;;;-1.00;99.90;;;;;;5056319;28;20202;-49
2023/12/04 00:13:43;;;;;;;24.80;14.00;;;-1.10;99.90;;;;;;5058198;28;20433;-50
2023/12/04 00:16:10;;;;;;;19.87;12.03;;;-1.10;99.90;;;;;;5036504;28;20776;-50
2023/12/04 00:18:37;;;;;;;21.97;12.97;;;-1.10;99.90;;;;;;5060569;28;20185;-49
2023/12/04 00:21:06;;;;;;;24.30;12.17;;;-1.10;99.90;;;;;;5062966;28;20201;-48
2023/12/04 00:23:32;;;;;;;23.80;12.30;;;-1.10;99.90;;;;;;5053955;28;20200;-47
2023/12/04 00:25:59;;;;;;;21.57;12.10;;;-1.20;99.90;;;;;;5054693;28;20225;-50
2023/12/04 00:28:28;;;;;;;18.73;11.57;;;-1.20;99.90;;;;;;5047747;28;20225;-52
2023/12/04 00:30:55;;;;;;;20.63;12.17;;;-1.20;99.90;;;;;;5036745;28;20213;-49
2023/12/04 00:33:22;;;;;;;23.23;12.77;;;-1.20;99.90;;;;;;5058956;28;20197;-50
2023/12/04 00:35:49;;;;;;;23.43;11.30;;;-1.20;99.90;;;;;;5062676;28;20211;-50
2023/12/04 00:38:17;;;;;;;22.17;11.77;;;-1.20;99.90;;;;;;5046499;28;20643;-51
2023/12/04 00:40:44;;;;;;;22.00;12.20;;;-1.20;99.90;;;;;;5053739;28;20635;-47
2023/12/04 00:43:10;;;;;;;21.13;12.00;;;-1.20;99.90;;;;;;5053876;28;20679;-50
2023/12/04 00:45:38;;;;;;;20.17;11.93;;;-1.20;99.90;;;;;;5036200;28;20272;-47
2023/12/04 00:48:05;;;;;;;21.53;11.00;;;-1.30;99.90;;;;;;5062159;28;20276;-50
2023/12/04 00:50:32;;;;;;;19.23;11.10;;;-1.30;99.90;;;;;;5058179;28;20247;-49
2023/12/04 00:52:58;;;;;;;23.57;11.97;;;-1.30;99.90;;;;;;5053580;28;20212;-46
2023/12/04 00:55:27;;;;;;;25.57;13.03;;;-1.30;99.90;;;;;;5049921;28;20326;-49
2023/12/04 00:57:53;;;;;;;20.33;11.93;;;-1.30;99.90;;;;;;5055589;28;20203;-50
2023/12/04 01:00:20;;;;;;;22.10;11.87;;;-1.30;99.90;;;;;;5034162;28;20231;-47
2023/12/04 01:02:47;;;;;;;22.50;11.50;;;-1.30;99.90;;;;;;5053210;28;20266;-51
2023/12/04 01:05:14;;;;;;;19.93;11.60;;;-1.30;99.90;;;;;;5059432;28;20232;-51
2023/12/04 01:07:41;;;;;;;19.13;11.53;;;-1.30;99.90;;;;;;5060131;28;20200;-48
2023/12/04 01:10:09;;;;;;;23.03;12.30;;;-1.30;99.90;;;;;;5052936;28;20269;-49
2023/12/04 01:12:37;;;;;;;22.63;12.63;;;-1.40;99.90;;;;;;5053204;28;20204;-49
2023/12/04 01:15:04;;;;;;;19.27;11.77;;;-1.40;99.90;;;;;;5050106;28;21046;-47
2023/12/04 01:17:31;;;;;;;17.97;10.67;;;-1.40;99.90;;;;;;5029676;28;20262;-48
2023/12/04 01:19:58;;;;;;;18.70;11.03;;;-1.40;99.90;;;;;;5058368;28;20811;-50
2023/12/04 01:22:25;;;;;;;21.87;11.33;;;-1.50;99.90;;;;;;5061848;28;20276;-50
2023/12/04 01:24:52;;;;;;;19.53;10.80;;;-1.50;99.90;;;;;;5057243;28;20209;-50
2023/12/04 01:27:18;;;;;;;22.53;10.90;;;-1.50;99.90;;;;;;5056876;28;20203;-50
2023/12/04 01:29:46;;;;;;;20.83;11.60;;;-1.50;99.90;;;;;;5060529;28;20258;-50
2023/12/04 01:32:13;;;;;;;22.03;10.87;;;-1.50;99.90;;;;;;5042416;28;20455;-48
2023/12/04 01:34:40;;;;;;;20.07;11.73;;;-1.50;99.90;;;;;;5068994;28;20280;-49
2023/12/04 01:37:07;;;;;;;18.00;10.47;;;-1.50;99.90;;;;;;5065074;28;20193;-50
2023/12/04 01:39:34;;;;;;;18.33;11.57;;;-1.60;99.90;;;;;;5068286;28;20188;-51
2023/12/04 01:42:00;;;;;;;23.10;11.10;;;-1.60;99.90;;;;;;5056388;28;20288;-48
2023/12/04 01:44:28;;;;;;;19.00;10.57;;;-1.60;99.90;;;;;;5060596;28;20925;-48
2023/12/04 01:46:57;;;;;;;18.67;10.83;;;-1.60;99.90;;;;;;5065419;28;20767;-50
2023/12/04 01:49:24;;;;;;;17.87;9.37;;;-1.60;99.90;;;;;;5036312;28;20198;-49
2023/12/04 01:51:51;;;;;;;23.03;10.63;;;-1.60;99.90;;;;;;5063835;28;20238;-49
2023/12/04 01:54:18;;;;;;;21.40;10.93;;;-1.60;99.90;;;;;;5067269;28;20599;-48
2023/12/04 01:56:45;;;;;;;17.93;10.17;;;-1.60;99.90;;;;;;5066251;28;20231;-53
2023/12/04 01:59:12;;;;;;;17.07;10.47;;;-1.60;99.90;;;;;;5057962;28;20269;-46
2023/12/04 02:01:40;;;;;;;19.10;10.33;;;-1.70;99.90;;;;;;5060564;28;20447;-50
2023/12/04 02:04:09;;;;;;;19.67;10.23;;;-1.70;99.90;;;;;;5041099;28;20443;-49
2023/12/04 02:06:36;;;;;;;17.63;10.10;;;-1.60;99.90;;;;;;5058723;28;20217;-50
2023/12/04 02:09:03;;;;;;;23.47;11.10;;;-1.70;99.90;;;;;;5064382;28;20254;-46
2023/12/04 02:11:30;;;;;;;19.40;10.63;;;-1.70;99.90;;;;;;5059606;28;20306;-48
2023/12/04 02:13:57;;;;;;;19.53;10.70;;;-1.70;99.90;;;;;;5055277;28;20203;-50
2023/12/04 02:16:26;;;;;;;21.00;10.97;;;-1.70;99.90;;;;;;5052530;28;20309;-46
2023/12/04 02:18:52;;;;;;;17.57;10.63;;;-1.80;99.90;;;;;;5065219;28;20193;-49
2023/12/04 02:21:21;;;;;;;17.23;10.47;;;-1.80;99.90;;;;;;5043235;28;20282;-46
2023/12/04 02:23:50;;;;;;;23.23;11.43;;;-1.80;99.90;;;;;;5065739;28;20208;-50
2023/12/04 02:26:19;;;;;;;15.23;10.13;;;-1.80;99.90;;;;;;5065170;28;20634;-47
2023/12/04 02:28:54;;;;;;;18.07;11.37;;;-1.80;99.90;;;;;;5059374;28;20828;-49
2023/12/04 02:31:23;;;;;;;19.77;10.20;;;-1.80;99.90;;;;;;5060730;28;20340;-49
2023/12/04 02:33:53;;;;;;;23.80;11.10;;;-1.80;99.90;;;;;;5065424;28;20195;-49
2023/12/04 02:36:21;;;;;;;20.40;11.23;;;-1.80;99.90;;;;;;5044342;28;20216;-51
2023/12/04 02:38:49;;;;;;;21.37;10.93;;;-1.80;99.90;;;;;;5061764;28;20207;-52
2023/12/04 02:41:17;;;;;;;19.43;11.37;;;-1.80;99.90;;;;;;5063616;28;20637;-52
2023/12/04 02:43:44;;;;;;;20.33;11.27;;;-1.90;99.90;;;;;;5058475;28;20761;-49
2023/12/04 02:46:11;;;;;;;18.27;10.60;;;-1.90;99.90;;;;;;5054960;28;20232;-48
2023/12/04 02:48:38;;;;;;;19.80;11.30;;;-1.90;99.90;;;;;;5055811;28;20285;-53
2023/12/04 02:51:05;;;;;;;21.13;11.47;;;-1.90;99.90;;;;;;5033762;28;20221;-49
2023/12/04 02:53:32;;;;;;;21.97;12.37;;;-1.90;99.90;;;;;;5064091;28;20205;-47
2023/12/04 02:56:00;;;;;;;21.23;10.17;;;-1.90;99.90;;;;;;5060626;28;20213;-48
2023/12/04 02:58:27;;;;;;;19.90;11.07;;;-1.90;99.90;;;;;;5064146;28;20197;-49
2023/12/04 03:00:54;;;;;;;21.37;11.60;;;-1.90;99.90;;;;;;5052530;28;20196;-53
2023/12/04 03:03:21;;;;;;;23.43;12.00;;;-1.90;99.90;;;;;;5056556;28;20258;-52
2023/12/04 03:05:47;;;;;;;23.37;10.63;;;-1.90;99.90;;;;;;5046984;28;20232;-50
2023/12/04 03:08:14;;;;;;;21.50;11.30;;;-1.90;99.90;;;;;;5056693;28;20285;-48
2023/12/04 03:10:42;;;;;;;18.47;11.10;;;-1.90;99.90;;;;;;5061562;28;20678;-50
2023/12/04 03:13:10;;;;;;;21.60;11.27;;;-1.90;99.90;;;;;;5062022;28;20193;-48
2023/12/04 03:15:37;;;;;;;19.97;10.90;;;-1.90;99.90;;;;;;5055685;28;20228;-49
2023/12/04 03:18:04;;;;;;;20.20;10.73;;;-1.90;99.90;;;;;;5060737;28;20452;-49
2023/12/04 03:20:33;;;;;;;21.17;11.23;;;-1.90;99.90;;;;;;5056381;28;20215;-48
2023/12/04 03:22:59;;;;;;;21.77;11.07;;;-1.90;99.90;;;;;;5036113;28;20204;-50
2023/12/04 03:25:26;;;;;;;20.60;11.23;;;-1.90;99.90;;;;;;5062148;28;20287;-46
2023/12/04 03:27:53;;;;;;;22.03;11.03;;;-1.90;99.90;;;;;;5059665;28;20258;-48
2023/12/04 03:30:21;;;;;;;19.73;10.87;;;-1.90;99.90;;;;;;5063797;28;20192;-49
2023/12/04 03:32:48;;;;;;;22.60;11.13;;;-1.90;99.90;;;;;;5053820;28;20596;-50
2023/12/04 03:35:15;;;;;;;18.83;10.73;;;-1.80;99.90;;;;;;5054758;28;20351;-47
2023/12/04 03:37:41;;;;;;;19.93;11.67;;;-1.80;99.90;;;;;;5054168;28;20705;-48
2023/12/04 03:40:09;;;;;;;20.03;10.63;;;-1.80;99.90;;;;;;5048686;28;20209;-49
2023/12/04 03:42:36;;;;;;;20.17;10.60;;;-1.80;99.90;;;;;;5063694;28;20261;-48
2023/12/04 03:45:03;;;;;;;20.93;10.73;;;-1.80;99.90;;;;;;5059847;28;21003;-51
2023/12/04 03:47:31;;;;;;;22.57;10.67;;;-1.80;99.90;;;;;;5055851;28;20218;-46
2023/12/04 03:49:57;;;;;;;18.30;9.73;;;-1.80;99.90;;;;;;5051501;28;20251;-47
2023/12/04 03:52:24;;;;;;;19.87;9.80;;;-1.80;99.90;;;;;;5063303;28;20221;-52
2023/12/04 03:54:51;;;;;;;21.23;9.90;;;-1.80;99.90;;;;;;5036056;28;20226;-51
2023/12/04 03:57:18;;;;;;;19.03;9.97;;;-1.80;99.90;;;;;;5063236;28;20708;-51
2023/12/04 03:59:45;;;;;;;17.90;9.87;;;-1.80;99.90;;;;;;5061886;28;20262;-49
2023/12/04 04:02:11;;;;;;;20.03;10.63;;;-1.80;99.90;;;;;;5052842;28;20204;-50
2023/12/04 04:04:39;;;;;;;17.97;9.57;;;-1.80;99.90;;;;;;5062599;28;20185;-52
2023/12/04 04:07:06;;;;;;;18.33;10.63;;;-1.80;99.90;;;;;;5052090;28;20458;-51
2023/12/04 04:09:33;;;;;;;18.57;9.00;;;-1.80;99.90;;;;;;5062900;28;20220;-50
2023/12/04 04:12:00;;;;;;;19.83;9.97;;;-1.80;99.90;;;;;;5033977;28;20208;-46
2023/12/04 04:14:27;;;;;;;23.00;10.93;;;-1.80;99.90;;;;;;5061824;28;20215;-46
2023/12/04 04:16:54;;;;;;;18.23;9.17;;;-1.80;99.90;;;;;;5048924;28;20188;-48
2023/12/04 04:19:20;;;;;;;18.07;9.10;;;-1.80;99.90;;;;;;5059669;28;20691;-49
2023/12/04 04:21:49;;;;;;;17.23;9.47;;;-1.80;99.90;;;;;;5056515;28;20653;-48
2023/12/04 04:24:15;;;;;;;17.93;10.03;;;-1.90;99.90;;;;;;5059297;28;20192;-48
2023/12/04 04:26:42;;;;;;;15.90;9.77;;;-1.90;99.90;;;;;;5036403;28;20290;-50
2023/12/04 04:29:09;;;;;;;15.90;9.27;;;-1.90;99.90;;;;;;5059883;28;20193;-49
2023/12/04 04:31:36;;;;;;;16.10;9.37;;;-1.80;99.90;;;;;;5062345;28;20207;-47
2023/12/04 04:34:03;;;;;;;15.50;8.77;;;-1.80;99.90;;;;;;5050789;28;20342;-47
2023/12/04 04:36:30;;;;;;;16.80;9.23;;;-1.80;99.90;;;;;;5061148;28;20209;-46
2023/12/04 04:38:58;;;;;;;14.87;8.90;;;-1.80;99.90;;;;;;5049860;28;20265;-47
2023/12/04 04:41:25;;;;;;;17.90;9.67;;;-1.80;99.90;;;;;;5038307;28;20300;-51
2023/12/04 04:43:52;;;;;;;16.50;9.03;;;-1.70;99.90;;;;;;5057063;28;20682;-49
2023/12/04 04:46:19;;;;;;;16.93;9.80;;;-1.70;99.90;;;;;;5061521;28;20570;-49
2023/12/04 04:48:46;;;;;;;15.20;8.37;;;-1.70;99.90;;;;;;5056169;28;20253;-47
2023/12/04 04:51:12;;;;;;;14.37;9.17;;;-1.60;99.90;;;;;;5057766;28;20188;-49
2023/12/04 04:53:39;;;;;;;18.80;9.10;;;-1.60;99.90;;;;;;5054281;28;20205;-51
2023/12/04 04:56:10;;;;;;;14.97;8.57;;;-1.60;99.90;;;;;;5059286;28;20266;-46
2023/12/04 04:58:37;;;;;;;16.17;9.33;;;-1.60;99.90;;;;;;5039219;28;20660;-52
2023/12/04 05:01:05;;;;;;;18.40;9.83;;;-1.60;99.90;;;;;;5058568;28;20254;-50
2023/12/04 05:03:32;;;;;;;17.33;8.73;;;-1.50;99.90;;;;;;5061472;28;20602;-49
2023/12/04 05:05:59;;;;;;;16.80;9.77;;;-1.50;99.90;;;;;;5048714;28;20275;-49
2023/12/04 05:08:25;;;;;;;16.73;8.73;;;-1.50;99.90;;;;;;5050330;28;20223;-50
2023/12/04 05:10:52;;;;;;;15.27;9.10;;;-1.60;99.90;;;;;;5053089;28;20206;-53
2023/12/04 05:13:20;;;;;;;19.17;8.53;;;-1.60;99.90;;;;;;5038118;28;20314;-50
2023/12/04 05:15:47;;;;;;;17.50;9.40;;;-1.60;99.90;;;;;;5059668;28;20231;-52
2023/12/04 05:18:15;;;;;;;17.53;8.20;;;-1.50;99.90;;;;;;5054933;28;20531;-50
2023/12/04 05:20:42;;;;;;;16.03;9.70;;;-1.50;99.90;;;;;;5051133;28;20203;-50
2023/12/04 05:23:09;;;;;;;16.40;9.10;;;-1.50;99.90;;;;;;5059048;28;20867;-49
2023/12/04 05:25:35;;;;;;;18.77;9.77;;;-1.50;99.90;;;;;;5047924;28;20688;-48
2023/12/04 05:28:02;;;;;;;15.37;8.87;;;-1.50;99.90;;;;;;5025299;28;20240;-47
2023/12/04 05:30:30;;;;;;;15.87;9.37;;;-1.40;99.90;;;;;;5061527;28;20204;-47
2023/12/04 05:32:57;;;;;;;18.27;9.73;;;-1.40;99.90;;;;;;5055642;28;20201;-51
2023/12/04 05:35:24;;;;;;;18.30;8.67;;;-1.40;99.90;;;;;;5054539;28;20272;-49
2023/12/04 05:37:51;;;;;;;17.73;9.73;;;-1.30;99.90;;;;;;5048528;28;20208;-52
2023/12/04 05:40:18;;;;;;;15.87;8.73;;;-1.30;99.90;;;;;;5052939;28;20193;-47
2023/12/04 05:42:45;;;;;;;18.93;10.13;;;-1.30;99.90;;;;;;5054289;28;20714;-52
2023/12/04 05:45:11;;;;;;;18.20;9.33;;;-1.30;99.90;;;;;;5030760;28;20373;-48
2023/12/04 05:47:40;;;;;;;15.20;7.87;;;-1.30;99.90;;;;;;5056879;28;20695;-51
2023/12/04 05:50:08;;;;;;;18.03;9.53;;;-1.20;99.90;;;;;;5052372;28;20962;-51
2023/12/04 05:52:35;;;;;;;17.80;9.50;;;-1.20;99.90;;;;;;5048222;28;20917;-49
2023/12/04 05:55:02;;;;;;;16.67;8.63;;;-1.20;99.90;;;;;;5059643;28;20604;-49
2023/12/04 05:57:29;;;;;;;14.90;8.47;;;-1.20;99.90;;;;;;5043704;28;20269;-52
2023/12/04 05:59:56;;;;;;;13.83;8.27;;;-1.10;99.90;;;;;;5031676;28;20355;-51
2023/12/04 06:02:23;;;;;;;15.10;8.20;;;-1.10;99.90;;;;;;5056778;28;20191;-48
2023/12/04 06:04:51;;;;;;;18.50;7.77;;;-1.10;99.90;;;;;;5055586;28;20244;-49
2023/12/04 06:07:18;;;;;;;14.03;9.00;;;-1.10;99.90;;;;;;5045861;28;20249;-48
2023/12/04 06:09:45;;;;;;;14.90;9.10;;;-1.10;99.90;;;;;;5061574;28;20244;-51
2023/12/04 06:12:11;;;;;;;15.07;8.97;;;-1.10;99.90;;;;;;5044978;28;20852;-51
2023/12/04 06:14:38;;;;;;;16.30;8.30;;;-1.00;99.90;;;;;;5035319;28;20322;-51
2023/12/04 06:17:06;;;;;;;15.90;9.50;;;-1.00;99.90;;;;;;5060623;28;20205;-50
2023/12/04 06:19:33;;;;;;;16.13;9.60;;;-1.00;99.90;;;;;;5059207;28;20285;-51
2023/12/04 06:22:01;;;;;;;14.73;8.87;;;-1.00;99.90;;;;;;5059581;28;20202;-51
2023/12/04 06:24:29;;;;;;;18.10;9.10;;;-1.10;99.90;;;;;;5047401;28;20375;-50
2023/12/04 06:26:57;;;;;;;16.70;9.33;;;-1.10;99.90;;;;;;5056553;28;20956;-52
2023/12/04 06:29:25;;;;;;;15.20;9.23;;;-1.10;99.90;;;;;;5053391;28;20216;-48
2023/12/04 06:31:52;;;;;;;18.37;9.83;;;-1.10;99.90;;;;;;5039316;28;20226;-50
2023/12/04 06:34:19;;;;;;;24.07;9.93;;;-1.10;99.90;;;;;;5058663;28;20205;-51
2023/12/04 06:36:46;;;;;;;17.13;9.67;;;-1.10;99.90;;;;;;5059122;28;20212;-47
2023/12/04 06:39:17;;;;;;;18.73;10.23;;;-1.10;99.90;;;;;;5053546;28;20209;-50
2023/12/04 06:41:46;;;;;;;17.63;8.57;;;-1.20;99.90;;;;;;5036388;28;20302;-47
2023/12/04 06:44:13;;;;;;;21.47;9.77;;;-1.20;99.90;;;;;;5039562;28;20213;-50
2023/12/04 06:46:43;;;;;;;18.03;9.57;;;-1.20;99.90;;;;;;5032449;28;20375;-47
2023/12/04 06:49:12;;;;;;;18.97;11.23;;;-1.30;99.90;;;;;;5058925;28;20287;-53
2023/12/04 06:51:39;;;;;;;18.87;10.67;;;-1.30;99.90;;;;;;5055250;28;20341;-51
2023/12/04 06:54:06;;;;;;;18.43;10.07;;;-1.30;99.90;;;;;;5052800;28;20212;-48
2023/12/04 06:56:34;;;;;;;19.30;10.63;;;-1.30;99.90;;;;;;5058458;28;20219;-51
2023/12/04 06:59:01;;;;;;;20.23;10.33;;;-1.30;99.90;;;;;;5049830;28;20206;-48
2023/12/04 07:01:30;;;;;;;19.70;10.90;;;-1.30;99.90;;;;;;5019774;28;22845;-48
2023/12/04 07:03:57;;;;;;;20.87;10.33;;;-1.30;99.90;;;;;;5061245;28;20197;-53
2023/12/04 07:06:25;;;;;;;17.90;9.70;;;-1.30;99.90;;;;;;5054234;28;20217;-54
2023/12/04 07:08:52;;;;;;;20.33;10.53;;;-1.30;99.90;;;;;;5052855;28;20221;-49
2023/12/04 07:11:19;;;;;;;23.30;10.50;;;-1.30;99.90;;;;;;5046947;28;20209;-54
2023/12/04 07:13:50;;;;;;;19.07;10.43;;;-1.30;99.90;;;;;;5055432;28;20273;-51
2023/12/04 07:16:18;;;;;;;18.27;10.33;;;-1.30;99.90;;;;;;5050605;28;20277;-54
2023/12/04 07:18:46;;;;;;;18.57;9.50;;;-1.30;99.90;;;;;;5036345;28;20212;-54
2023/12/04 07:21:14;;;;;;;25.17;11.43;;;-1.30;99.90;;;;;;5048234;28;20881;-55
2023/12/04 07:23:42;;;;;;;22.87;11.47;;;-1.30;99.90;;;;;;5053236;28;20275;-52
2023/12/04 07:26:09;;;;;;;18.60;10.30;;;-1.30;99.90;;;;;;5046139;28;20218;-53
2023/12/04 07:28:37;;;;;;;17.50;9.97;;;-1.30;99.90;;;;;;5062595;28;20354;-53
2023/12/04 07:31:07;;;;;;;20.07;10.97;;;-1.30;99.90;;;;;;5053226;28;20565;-53
2023/12/04 07:33:34;;;;;;;20.87;11.53;;;-1.30;99.90;;;;;;5034434;28;20662;-56
2023/12/04 07:36:02;;;;;;;24.23;11.90;;;-1.30;99.90;;;;;;5052726;28;20271;-53
2023/12/04 07:38:31;;;;;;;20.07;11.40;;;-1.30;99.90;;;;;;5046418;28;20220;-51
2023/12/04 07:40:59;;;;;;;21.10;10.27;;;-1.30;99.90;;;;;;5048261;28;20271;-49
2023/12/04 07:43:27;;;;;;;24.60;11.40;;;-1.30;99.90;;;;;;5058675;28;20277;-51
2023/12/04 07:45:57;;;;;;;19.63;10.70;;;-1.30;99.90;;;;;;5052808;28;20229;-50
2023/12/04 07:48:29;;;;;;;23.97;11.37;;;-1.30;99.90;;;;;;5048579;28;20329;-52
2023/12/04 07:50:57;;;;;;;23.80;12.40;;;-1.30;99.90;;;;;;5017935;28;20258;-49
2023/12/04 07:53:25;;;;;;;24.13;11.77;;;-1.30;99.90;;;;;;5053883;28;20634;-53
2023/12/04 07:55:53;;;;;;;24.50;11.47;;;-1.30;99.90;;;;;;5040968;28;20227;-51
2023/12/04 07:58:21;;;;;;;22.20;11.60;;;-1.30;99.90;;;;;;5053620;28;20611;-48
2023/12/04 08:00:50;;;;;;;20.93;11.20;;;-1.30;99.90;;;;;;5056392;28;20273;-49
2023/12/04 08:03:18;;;;;;;23.13;12.37;;;-1.30;99.90;;;;;;5058535;28;20209;-50
2023/12/04 08:05:48;;;;;;;20.57;11.17;;;-1.30;99.90;;;;;;5024869;28;21511;-52
2023/12/04 08:08:16;;;;;;;21.90;11.60;;;-1.30;99.90;;;;;;5045815;28;20308;-49
2023/12/04 08:10:43;;;;;;;23.90;12.57;;;-1.30;99.90;;;;;;5041022;28;20201;-50
2023/12/04 08:13:11;;;;;;;22.17;12.00;;;-1.30;99.90;;;;;;5048746;28;20734;-52
2023/12/04 08:15:39;;;;;;;18.57;10.57;;;-1.30;99.90;;;;;;5057727;28;20209;-49
2023/12/04 08:18:07;;;;;;;22.73;11.93;;;-1.20;99.90;;;;;;5041781;28;20295;-49
2023/12/04 08:20:36;;;;;;;21.13;12.00;;;-1.20;99.90;;;;;;5027533;28;20212;-50
2023/12/04 08:23:06;;;;;;;22.90;11.67;;;-1.20;99.90;;;;;;5036923;28;20367;-50
2023/12/04 08:25:37;;;;;;;22.27;12.07;;;-1.20;99.90;;;;;;5050048;28;20608;-50
2023/12/04 08:28:05;;;;;;;21.87;10.73;;;-1.20;99.90;;;;;;5038806;28;20291;-54
2023/12/04 08:30:33;;;;;;;24.10;12.33;;;-1.10;99.90;;;;;;5062571;28;20262;-47
2023/12/04 08:33:01;;;;;;;24.10;12.10;;;-1.10;99.90;;;;;;5053658;28;20970;-49
2023/12/04 08:35:29;;;;;;;19.27;10.77;;;-1.10;99.90;;;;;;5059779;28;20213;-47
2023/12/04 08:37:57;;;;;;;23.57;11.67;;;-1.10;99.90;;;;;;5024094;28;20208;-49
2023/12/04 08:40:26;;;;;;;20.87;11.60;;;-1.00;99.90;;;;;;5053249;28;20208;-48
2023/12/04 08:42:54;;;;;;;20.27;11.27;;;-1.00;99.90;;;;;;5044694;28;20860;-51
2023/12/04 08:45:22;;;;;;;20.73;12.00;;;-1.00;99.90;;;;;;5057430;28;20216;-51
2023/12/04 08:47:50;;;;;;;20.07;11.13;;;-1.00;99.90;;;;;;5055141;28;20235;-50
2023/12/04 08:50:18;;;;;;;23.33;11.63;;;-1.00;99.90;;;;;;5055865;28;20208;-48
2023/12/04 08:52:46;;;;;;;22.60;11.70;;;-0.90;99.90;;;;;;5025833;28;20650;-50
2023/12/04 08:55:14;;;;;;;20.80;11.40;;;-0.90;99.90;;;;;;5047120;28;20336;-49
2023/12/04 08:57:43;;;;;;;21.43;11.27;;;-0.90;99.90;;;;;;5050619;28;20193;-51
2023/12/04 09:00:12;;;;;;;25.83;12.63;;;-0.90;99.90;;;;;;5050806;28;20201;-48
2023/12/04 09:02:39;;;;;;;26.23;12.10;;;-0.90;99.90;;;;;;5059198;28;20667;-53
2023/12/04 09:05:08;;;;;;;26.30;11.97;;;-0.90;99.90;;;;;;5050971;28;20227;-47
2023/12/04 09:07:37;;;;;;;23.10;11.77;;;-0.80;99.90;;;;;;5061445;28;20220;-46
2023/12/04 09:10:07;;;;;;;21.57;11.77;;;-0.80;99.90;;;;;;5027033;28;20200;-48
2023/12/04 09:12:36;;;;;;;19.10;12.07;;;-0.80;99.90;;;;;;5046146;28;20211;-49
2023/12/04 09:15:06;;;;;;;20.03;11.83;;;-0.80;99.90;;;;;;5054748;28;21002;-48
2023/12/04 09:17:37;;;;;;;22.50;11.00;;;-0.80;99.90;;;;;;5059098;28;20228;-51
2023/12/04 09:20:05;;;;;;;22.10;11.37;;;-0.80;99.90;;;;;;5053212;28;20264;-48
2023/12/04 09:22:34;;;;;;;17.83;11.73;;;-0.80;99.90;;;;;;5059554;28;20261;-50
2023/12/04 09:25:01;;;;;;;20.03;11.40;;;-0.80;99.90;;;;;;5038602;28;20998;-51
2023/12/04 09:27:28;;;;;;;23.70;13.00;;;-0.80;99.90;;;;;;5054483;28;20208;-49
2023/12/04 09:29:55;;;;;;;22.33;12.17;;;-0.70;99.90;;;;;;5047433;28;20696;-53
2023/12/04 09:32:24;;;;;;;24.67;11.80;;;-0.70;99.90;;;;;;5058214;28;20271;-49
2023/12/04 09:34:52;;;;;;;25.97;12.70;;;-0.70;99.90;;;;;;5058173;28;20229;-47
2023/12/04 09:37:19;;;;;;;19.40;11.37;;;-0.70;99.90;;;;;;5056041;28;20215;-49
2023/12/04 09:39:49;;;;;;;18.37;11.63;;;-0.70;99.90;;;;;;5047092;28;20275;-48
2023/12/04 09:42:18;;;;;;;21.47;11.17;;;-0.60;99.90;;;;;;5056274;28;20599;-47
2023/12/04 09:44:48;;;;;;;24.23;11.97;;;-0.60;99.90;;;;;;5053000;28;20196;-53
2023/12/04 09:47:17;;;;;;;19.77;11.97;;;-0.60;99.90;;;;;;5052610;28;20269;-50
2023/12/04 09:49:47;;;;;;;18.73;10.90;;;-0.60;99.90;;;;;;5056034;28;20803;-49
2023/12/04 09:52:18;;;;;;;22.23;12.43;;;-0.60;99.90;;;;;;5059799;28;20691;-48
2023/12/04 09:54:46;;;;;;;20.87;11.33;;;-0.50;99.90;;;;;;5059394;28;20220;-49
2023/12/04 09:57:15;;;;;;;21.50;11.23;;;-0.50;99.90;;;;;;5041922;28;20887;-48
2023/12/04 09:59:45;;;;;;;23.27;12.43;;;-0.50;99.90;;;;;;5047579;28;20230;-50
2023/12/04 10:02:12;;;;;;;23.17;12.27;;;-0.50;99.90;;;;;;5056997;28;20660;-49
2023/12/04 10:04:39;;;;;;;20.80;10.83;;;-0.40;99.90;;;;;;5062108;28;20197;-48
2023/12/04 10:07:08;;;;;;;23.70;11.97;;;-0.40;99.90;;;;;;5064305;28;20195;-50
2023/12/04 10:09:35;;;;;;;19.10;10.63;;;-0.30;99.90;;;;;;5054002;28;20220;-48
2023/12/04 10:12:03;;;;;;;19.53;11.23;;;-0.30;99.90;;;;;;5031652;28;20305;-48
2023/12/04 10:14:31;;;;;;;23.17;11.20;;;-0.30;99.90;;;;;;5048737;28;20198;-49
2023/12/04 10:16:59;;;;;;;20.37;11.53;;;-0.20;99.90;;;;;;5057180;28;20205;-47
2023/12/04 10:19:29;;;;;;;16.93;9.57;;;-0.20;99.90;;;;;;5057079;28;20808;-46
2023/12/04 10:21:59;;;;;;;19.20;10.47;;;-0.20;99.90;;;;;;5052009;28;20199;-49
2023/12/04 10:24:37;;;;;;;19.20;10.57;;;-0.20;99.90;;;;;;5049822;28;20863;-50
2023/12/04 10:27:08;;;;;;;20.10;10.17;;;-0.20;99.90;;;;;;5030736;28;20203;-48
2023/12/04 10:29:44;;;;;;;19.90;10.57;;;-0.10;99.90;;;;;;5062551;28;20217;-47
2023/12/04 10:32:12;;;;;;;17.07;9.73;;;-0.10;99.90;;;;;;5052449;28;20221;-49
2023/12/04 10:34:40;;;;;;;19.30;10.47;;;0.00;99.90;;;;;;5054049;28;20221;-47
2023/12/04 10:37:08;;;;;;;17.63;9.50;;;0.00;99.90;;;;;;5057567;28;20206;-46
2023/12/04 10:39:48;;;;;;;20.00;10.67;;;0.00;99.90;;;;;;5054514;28;20648;-48
2023/12/04 10:42:26;;;;;;;17.80;10.20;;;0.00;99.90;;;;;;5031918;28;20292;-47
2023/12/04 10:44:57;;;;;;;17.70;10.77;;;0.00;99.90;;;;;;5060878;28;20578;-49
2023/12/04 10:47:25;;;;;;;20.03;10.13;;;0.00;99.90;;;;;;5055526;28;20209;-47
2023/12/04 10:49:54;;;;;;;18.80;10.07;;;0.00;99.90;;;;;;5055252;28;20217;-48
2023/12/04 10:52:23;;;;;;;17.07;9.20;;;0.10;99.90;;;;;;5054138;28;20723;-48
2023/12/04 10:54:52;;;;;;;19.80;10.67;;;0.10;99.90;;;;;;5058847;28;20223;-48
2023/12/04 10:57:29;;;;;;;19.03;10.10;;;0.10;99.90;;;;;;5037166;28;20336;-47
2023/12/04 11:00:02;;;;;;;15.43;8.67;;;0.10;99.90;;;;;;5057994;28;20256;-45
2023/12/04 11:02:34;;;;;;;15.13;9.70;;;0.20;99.90;;;;;;5053356;28;20203;-48
2023/12/04 11:05:13;;;;;;;19.63;10.40;;;0.20;99.90;;;;;;5047817;28;20224;-48
2023/12/04 11:07:43;;;;;;;15.03;9.23;;;0.20;99.90;;;;;;5058361;28;20225;-48
2023/12/04 11:10:13;;;;;;;18.03;10.13;;;0.20;99.90;;;;;;5049205;28;20279;-47
2023/12/04 11:12:44;;;;;;;16.87;10.83;;;0.30;99.90;;;;;;5031894;28;20568;-46
2023/12/04 11:15:17;;;;;;;20.17;9.97;;;0.30;99.90;;;;;;5059681;28;20271;-50
2023/12/04 11:17:46;;;;;;;16.60;10.20;;;0.40;99.90;;;;;;5054941;28;20203;-49
2023/12/04 11:20:17;;;;;;;19.03;10.50;;;0.40;99.90;;;;;;5041853;28;20199;-50
2023/12/04 11:22:46;;;;;;;18.53;11.40;;;0.40;99.90;;;;;;5048052;28;20197;-51
2023/12/04 11:25:15;;;;;;;21.33;11.30;;;0.40;99.90;;;;;;5062122;28;20695;-52
2023/12/04 11:27:44;;;;;;;17.90;11.17;;;0.30;99.90;;;;;;5013508;28;20279;-49
2023/12/04 11:30:13;;;;;;;18.70;11.30;;;0.30;99.90;;;;;;5061449;28;20230;-51
2023/12/04 11:32:45;;;;;;;19.07;11.13;;;0.30;99.90;;;;;;5048442;28;20191;-50
2023/12/04 11:35:14;;;;;;;19.37;11.23;;;0.30;99.90;;;;;;5053261;28;20900;-51
2023/12/04 11:37:43;;;;;;;15.80;9.83;;;0.20;99.90;;;;;;5047849;28;20193;-53
2023/12/04 11:40:13;;;;;;;19.43;11.53;;;0.30;99.90;;;;;;5055464;28;20285;-52
2023/12/04 11:42:42;;;;;;;21.47;11.60;;;0.20;99.90;;;;;;5033167;28;20208;-50
2023/12/04 11:45:09;;;;;;;23.23;11.47;;;0.20;99.90;;;;;;5032831;28;20324;-49
2023/12/04 11:47:53;;;;;;;19.63;11.90;;;0.20;99.90;;;;;;5040972;28;20210;-49
2023/12/04 11:50:20;;;;;;;18.27;10.60;;;0.20;99.90;;;;;;5048777;28;20222;-49
2023/12/04 11:52:48;;;;;;;19.40;10.90;;;0.20;99.90;;;;;;5047229;28;20189;-51
2023/12/04 11:55:18;;;;;;;18.77;10.83;;;0.30;99.90;;;;;;5057425;28;20943;-51
2023/12/04 11:57:46;;;;;;;18.73;11.03;;;0.30;99.90;;;;;;5044731;28;20624;-51
2023/12/04 12:00:21;;;;;;;19.30;11.77;;;0.30;99.90;;;;;;5033342;28;20290;-47
2023/12/04 12:03:03;;;;;;;18.93;11.13;;;0.40;99.90;;;;;;5059626;28;20197;-49
2023/12/04 12:05:33;;;;;;;20.77;11.37;;;0.40;99.90;;;;;;5039312;28;20250;-46
2023/12/04 12:08:04;;;;;;;19.93;11.20;;;0.40;99.90;;;;;;5056013;28;20278;-46
2023/12/04 12:10:33;;;;;;;18.57;11.57;;;0.30;99.90;;;;;;5055969;28;20638;-47
2023/12/04 12:13:02;;;;;;;19.93;11.77;;;0.30;99.90;;;;;;5042673;28;20217;-46
2023/12/04 12:15:30;;;;;;;20.50;11.37;;;0.20;99.90;;;;;;5037391;28;20579;-49
2023/12/04 12:17:57;;;;;;;18.20;10.63;;;0.20;99.90;;;;;;5058924;28;20275;-48
2023/12/04 12:20:29;;;;;;;17.63;10.93;;;0.20;99.90;;;;;;5047810;28;20202;-49
2023/12/04 12:22:57;;;;;;;22.80;11.67;;;0.20;99.90;;;;;;5055298;28;20210;-48
2023/12/04 12:25:26;;;;;;;20.93;10.50;;;0.20;99.90;;;;;;5060052;28;20705;-46
2023/12/04 12:27:53;;;;;;;18.10;10.73;;;0.20;99.90;;;;;;5050459;28;20289;-45
2023/12/04 12:30:23;;;;;;;18.87;11.47;;;0.30;99.90;;;;;;5045525;28;20217;-45
2023/12/04 12:32:52;;;;;;;20.17;11.57;;;0.20;99.90;;;;;;5055058;28;20199;-46
2023/12/04 12:35:20;;;;;;;15.77;9.87;;;0.20;99.90;;;;;;5049913;28;20304;-48